Time;durP1;ratioP1;P1;durP2;ratioP2;P2;SDS_P1;SDS_P2;PMS_P1;PMS_P2;Temp;Humidity;BMP_temperature;BMP_pressure;BME280_temperature;BME280_humidity;BME280_pressure;Samples;Min_cycle;Max_cycle;Signal;HPM_P1;HPM_P2
2022/09/15 00:01:57;;;;;;;4.03;3.23;;;;;;;19.28;71.02;94707.06;5052377;28;20450;-80
2022/09/15 00:04:26;;;;;;;6.17;3.93;;;;;;;19.32;70.71;94710.19;5052678;28;20461;-79
2022/09/15 00:06:53;;;;;;;10.40;2.70;;;;;;;19.32;70.80;94708.34;5052530;28;20941;-80
2022/09/15 00:09:19;;;;;;;4.13;3.13;;;;;;;19.33;70.82;94707.31;5052503;28;20442;-80
2022/09/15 00:11:47;;;;;;;4.10;3.13;;;;;;;19.33;70.81;94706.50;5052716;28;20830;-80
2022/09/15 00:14:14;;;;;;;4.20;3.33;;;;;;;19.27;70.72;94708.09;5017861;28;20454;-79
2022/09/15 00:16:41;;;;;;;6.13;2.93;;;;;;;19.30;70.59;94707.72;5052495;28;20496;-80
2022/09/15 00:19:07;;;;;;;3.60;3.30;;;;;;;19.30;70.65;94705.03;5052612;28;20454;-79
2022/09/15 00:21:39;;;;;;;3.90;3.60;;;;;;;19.25;70.64;94703.97;5052496;28;20457;-80
2022/09/15 00:24:06;;;;;;;6.50;3.83;;;;;;;19.25;70.88;94703.97;5052601;28;20473;-79
2022/09/15 00:26:33;;;;;;;3.43;3.13;;;;;;;19.24;70.70;94711.13;5052363;28;20452;-80
2022/09/15 00:29:00;;;;;;;3.37;3.07;;;;;;;19.21;70.67;94718.66;5052205;28;20815;-80
2022/09/15 00:31:29;;;;;;;3.57;3.27;;;;;;;19.24;70.92;94723.59;5052581;28;20535;-79
2022/09/15 00:33:58;;;;;;;4.07;3.17;;;;;;;19.18;70.92;94720.69;5052017;28;20823;-81
2022/09/15 00:36:25;;;;;;;4.33;3.03;;;;;;;19.08;71.64;94717.50;5052268;28;20944;-80
2022/09/15 00:38:54;;;;;;;5.60;4.03;;;;;;;19.07;71.57;94717.66;5052110;28;20975;-80
2022/09/15 00:41:23;;;;;;;4.93;3.63;;;;;;;19.06;71.79;94711.50;5052099;28;20446;-79
2022/09/15 00:43:53;;;;;;;4.03;3.73;;;;;;;19.03;71.78;94713.72;5053768;28;20441;-80
2022/09/15 00:46:23;;;;;;;7.23;3.23;;;;;;;18.98;71.87;94711.63;5056546;28;20444;-80
2022/09/15 00:48:56;;;;;;;3.60;3.30;;;;;;;18.92;71.99;94712.38;5056404;28;20449;-80
2022/09/15 00:51:29;;;;;;;3.83;3.40;;;;;;;18.86;72.23;94710.47;5056073;28;20531;-79
2022/09/15 00:54:00;;;;;;;3.10;2.90;;;;;;;18.87;72.40;94715.59;5056799;28;20458;-79
2022/09/15 00:56:28;;;;;;;3.57;3.13;;;;;;;18.84;72.25;94721.28;5056069;28;20445;-80
2022/09/15 00:59:00;;;;;;;3.87;3.60;;;;;;;18.82;72.29;94720.66;5056276;28;20430;-80
2022/09/15 01:01:28;;;;;;;3.80;3.50;;;;;;;18.81;72.22;94726.16;5056048;28;20535;-80
2022/09/15 01:03:55;;;;;;;5.17;3.70;;;;;;;18.80;72.32;94721.84;5056180;28;20437;-80
2022/09/15 01:06:27;;;;;;;3.73;3.40;;;;;;;18.78;72.42;94719.34;5056146;28;20449;-80
2022/09/15 01:09:02;;;;;;;8.50;3.40;;;;;;;18.74;72.41;94712.75;5056060;28;20445;-80
2022/09/15 01:11:29;;;;;;;4.20;3.43;;;;;;;18.68;72.89;94713.50;5055791;28;20488;-80
2022/09/15 01:13:56;;;;;;;6.30;3.60;;;;;;;18.65;72.70;94711.19;5055707;28;20437;-80
2022/09/15 01:16:32;;;;;;;3.40;3.10;;;;;;;18.66;72.82;94715.50;5055717;28;20941;-79
2022/09/15 01:19:13;;;;;;;6.63;3.63;;;;;;;18.64;72.96;94711.38;5055862;28;20444;-80
2022/09/15 01:21:45;;;;;;;3.27;2.97;;;;;;;18.62;72.71;94716.03;5055983;28;20456;-80
2022/09/15 01:24:41;;;;;;;3.63;3.33;;;;;;;18.60;72.67;94715.41;5055724;28;20449;-80
2022/09/15 01:27:38;;;;;;;5.33;3.80;;;;;;;18.58;72.44;94707.59;5055522;28;20941;-80
2022/09/15 01:30:17;;;;;;;7.10;3.50;;;;;;;18.54;72.40;94698.34;5055744;28;20473;-80
2022/09/15 01:33:21;;;;;;;9.63;3.27;;;;;;;18.52;72.68;94709.16;5055345;28;20488;-80
2022/09/15 01:36:03;;;;;;;8.97;3.73;;;;;;;18.47;73.11;94703.56;4993673;28;20491;-80
2022/09/15 01:38:46;;;;;;;4.00;3.40;;;;;;;18.44;73.43;94706.59;4993686;28;20452;-79
2022/09/15 01:41:17;;;;;;;3.87;3.57;;;;;;;18.37;73.55;94695.03;4993983;28;20488;-80
2022/09/15 01:43:50;;;;;;;3.70;3.40;;;;;;;18.33;73.63;94696.41;4993768;28;20440;-79
2022/09/15 01:46:21;;;;;;;3.40;3.20;;;;;;;18.31;74.30;94709.06;4993686;28;20960;-80
2022/09/15 01:48:49;;;;;;;6.03;3.40;;;;;;;18.29;74.10;94703.09;4993774;28;20449;-80
2022/09/15 01:51:16;;;;;;;3.03;2.73;;;;;;;18.29;74.29;94719.03;4945378;28;20955;-80
2022/09/15 01:53:44;;;;;;;3.50;3.20;;;;;;;18.25;74.57;94707.13;4961199;28;20861;-80
2022/09/15 01:56:12;;;;;;;3.43;3.13;;;;;;;18.21;74.63;94712.00;4992481;28;20452;-79
2022/09/15 01:58:41;;;;;;;5.23;3.77;;;;;;;18.22;74.78;94707.50;4993500;28;20456;-79
2022/09/15 02:01:13;;;;;;;5.47;3.27;;;;;;;18.23;74.75;94711.81;4993761;28;21060;-80
2022/09/15 02:03:46;;;;;;;5.00;3.10;;;;;;;18.21;74.57;94712.00;4993195;28;20535;-80
2022/09/15 02:06:19;;;;;;;3.33;2.97;;;;;;;18.20;74.55;94701.50;4993292;28;20449;-79
2022/09/15 02:08:52;;;;;;;4.20;3.10;;;;;;;18.19;74.25;94698.03;4993318;28;20935;-79
2022/09/15 02:11:21;;;;;;;3.83;3.33;;;;;;;18.21;74.34;94703.16;5002715;28;20442;-80
2022/09/15 02:13:56;;;;;;;4.17;3.70;;;;;;;18.22;74.16;94699.53;5054836;28;20449;-80
2022/09/15 02:16:25;;;;;;;3.30;3.00;;;;;;;18.17;74.29;94699.22;5054865;28;20441;-80
2022/09/15 02:19:08;;;;;;;3.37;3.17;;;;;;;18.14;74.25;94683.66;5052671;28;20442;-80
2022/09/15 02:21:42;;;;;;;4.23;3.27;;;;;;;18.11;74.53;94690.16;5054838;28;20434;-80
2022/09/15 02:24:17;;;;;;;3.23;2.93;;;;;;;18.13;73.62;94690.78;5054605;28;20799;-80
2022/09/15 02:26:47;;;;;;;5.57;3.33;;;;;;;18.17;73.99;94688.59;5054787;28;20445;-80
2022/09/15 02:29:17;;;;;;;5.40;3.93;;;;;;;18.16;74.01;94681.63;5054511;28;20486;-80
2022/09/15 02:31:46;;;;;;;5.30;4.13;;;;;;;18.16;74.10;94687.78;5054476;28;20477;-80
2022/09/15 02:34:19;;;;;;;3.67;3.30;;;;;;;18.14;74.46;94686.31;5054463;28;20460;-80
2022/09/15 02:36:52;;;;;;;5.53;3.60;;;;;;;18.08;74.30;94679.06;5054629;28;20438;-80
2022/09/15 02:39:23;;;;;;;6.80;4.23;;;;;;;18.10;74.33;94680.53;5054329;28;20437;-79
2022/09/15 02:41:50;;;;;;;6.27;3.70;;;;;;;18.13;74.31;94668.72;5054386;28;20500;-80
2022/09/15 02:44:17;;;;;;;9.37;4.07;;;;;;;18.09;74.30;94678.88;5054151;28;20442;-79
2022/09/15 02:46:44;;;;;;;5.90;3.90;;;;;;;18.09;74.26;94694.00;5054150;28;20442;-80
2022/09/15 02:49:11;;;;;;;5.47;4.17;;;;;;;18.03;74.49;94676.97;5053949;28;20442;-80
2022/09/15 02:51:40;;;;;;;5.03;3.70;;;;;;;18.02;75.01;94680.63;5054233;28;20842;-80
2022/09/15 02:54:07;;;;;;;6.93;3.57;;;;;;;18.03;74.79;94690.25;5051840;28;20438;-79
2022/09/15 02:56:34;;;;;;;11.40;4.00;;;;;;;18.05;74.79;94693.53;5053878;28;20449;-79
2022/09/15 02:59:01;;;;;;;5.57;3.77;;;;;;;18.08;74.63;94695.00;5053630;28;20503;-80
2022/09/15 03:01:31;;;;;;;4.07;3.60;;;;;;;18.09;74.42;94683.38;5054165;28;20872;-80
2022/09/15 03:03:58;;;;;;;4.73;3.60;;;;;;;18.08;74.08;94687.88;5053805;28;20464;-80
2022/09/15 03:06:27;;;;;;;4.73;3.80;;;;;;;18.07;74.25;94690.69;5053775;28;20959;-80
2022/09/15 03:08:57;;;;;;;4.97;3.13;;;;;;;18.07;73.81;94688.03;5053669;28;20948;-80
2022/09/15 03:11:26;;;;;;;6.13;4.13;;;;;;;18.07;73.78;94683.56;5053324;28;20936;-80
2022/09/15 03:13:54;;;;;;;8.87;4.10;;;;;;;18.15;73.75;94695.94;5053307;28;20988;-80
2022/09/15 03:16:21;;;;;;;4.27;3.83;;;;;;;18.17;73.69;94696.56;5053949;28;20453;-80
2022/09/15 03:18:48;;;;;;;5.10;3.40;;;;;;;18.18;73.56;94701.69;5053601;28;20468;-80
2022/09/15 03:21:17;;;;;;;4.60;3.93;;;;;;;18.21;73.45;94708.47;5053584;28;20456;-80
2022/09/15 03:23:44;;;;;;;7.17;4.30;;;;;;;18.12;73.32;94701.59;5053535;28;20457;-80
2022/09/15 03:26:12;;;;;;;5.40;3.87;;;;;;;18.13;73.42;94709.38;5018325;28;20875;-79
2022/09/15 03:28:40;;;;;;;8.90;4.13;;;;;;;18.11;73.79;94716.72;5053920;28;20811;-79
2022/09/15 03:31:08;;;;;;;4.30;3.90;;;;;;;18.10;73.87;94722.19;5053342;28;20473;-80
2022/09/15 03:33:35;;;;;;;5.70;4.37;;;;;;;18.07;74.46;94719.91;5053072;28;20478;-80
2022/09/15 03:36:02;;;;;;;5.93;4.50;;;;;;;18.00;75.00;94726.94;5053157;28;20452;-80
2022/09/15 03:38:30;;;;;;;8.07;4.13;;;;;;;17.90;75.41;94724.53;5052944;28;20457;-80
2022/09/15 03:40:58;;;;;;;7.60;4.90;;;;;;;17.81;75.35;94718.47;5053109;28;20447;-79
2022/09/15 03:43:27;;;;;;;7.63;3.83;;;;;;;17.82;75.27;94725.44;5053133;28;20528;-80
2022/09/15 03:45:54;;;;;;;3.90;3.60;;;;;;;17.77;75.86;94727.78;5053035;28;20461;-79
2022/09/15 03:48:21;;;;;;;7.03;4.40;;;;;;;17.74;75.92;94717.53;5053214;28;20503;-79
2022/09/15 03:50:48;;;;;;;4.00;3.70;;;;;;;17.75;76.02;94727.16;5050796;28;20453;-79
2022/09/15 03:53:15;;;;;;;6.87;4.27;;;;;;;17.71;75.73;94717.91;5053027;28;20520;-80
2022/09/15 03:55:42;;;;;;;5.87;3.80;;;;;;;17.72;76.08;94722.19;5053019;28;20473;-79
2022/09/15 03:58:09;;;;;;;5.00;3.80;;;;;;;17.75;76.13;94715.72;5034336;28;20528;-80
2022/09/15 04:00:37;;;;;;;8.83;5.00;;;;;;;17.76;75.79;94710.22;5052987;28;20458;-79
2022/09/15 04:03:05;;;;;;;5.50;4.30;;;;;;;17.75;75.85;94710.41;5053124;28;20793;-80
2022/09/15 04:05:32;;;;;;;6.00;4.20;;;;;;;17.70;76.38;94713.59;5054275;28;20438;-80
2022/09/15 04:07:59;;;;;;;8.80;4.50;;;;;;;17.68;76.65;94720.91;5035179;28;20438;-80
2022/09/15 04:10:26;;;;;;;7.97;4.30;;;;;;;17.69;76.13;94732.34;5053982;28;20481;-79
2022/09/15 04:12:53;;;;;;;4.30;3.73;;;;;;;17.60;76.59;94723.56;5053411;28;20493;-80
2022/09/15 04:15:21;;;;;;;6.97;4.67;;;;;;;17.59;76.25;94724.56;5053537;28;20438;-81
2022/09/15 04:17:49;;;;;;;5.53;3.70;;;;;;;17.59;76.57;94717.44;5054015;28;20437;-80
2022/09/15 04:20:16;;;;;;;8.70;4.80;;;;;;;17.62;76.35;94716.25;5053262;28;20951;-80
2022/09/15 04:22:43;;;;;;;6.00;4.77;;;;;;;17.61;76.40;94715.44;5053589;28;20524;-79
2022/09/15 04:25:11;;;;;;;7.87;4.73;;;;;;;17.65;76.75;94710.63;5034865;28;20437;-80
2022/09/15 04:27:37;;;;;;;7.70;5.20;;;;;;;17.64;76.54;94708.97;5053312;28;20441;-81
2022/09/15 04:30:06;;;;;;;6.70;4.13;;;;;;;17.72;76.37;94710.75;5053173;28;21060;-80
2022/09/15 04:32:34;;;;;;;8.80;4.60;;;;;;;17.75;76.09;94707.75;5052965;28;21204;-80
2022/09/15 04:35:03;;;;;;;4.63;4.13;;;;;;;17.77;75.94;94701.25;5053267;28;20434;-79
2022/09/15 04:37:30;;;;;;;6.67;5.00;;;;;;;17.79;75.50;94696.59;5053224;28;20477;-80
2022/09/15 04:39:57;;;;;;;4.73;4.00;;;;;;;17.82;74.87;94698.88;5053090;28;20935;-80
2022/09/15 04:42:24;;;;;;;11.83;4.10;;;;;;;17.97;74.85;94703.41;5053007;28;20449;-80
2022/09/15 04:44:51;;;;;;;8.77;5.00;;;;;;;18.04;74.64;94709.66;5053498;28;20449;-80
2022/09/15 04:47:18;;;;;;;9.37;4.50;;;;;;;18.11;74.52;94715.88;5053313;28;20792;-80
2022/09/15 04:49:45;;;;;;;10.47;4.60;;;;;;;18.22;74.30;94713.63;5039865;28;20804;-80
2022/09/15 04:52:16;;;;;;;9.57;5.10;;;;;;;18.32;73.78;94717.84;5033123;28;20466;-79
2022/09/15 04:54:43;;;;;;;12.00;4.93;;;;;;;18.43;73.53;94707.59;5033024;28;21019;-80
2022/09/15 04:57:10;;;;;;;7.53;5.07;;;;;;;18.55;72.97;94707.97;5051442;28;20447;-80
2022/09/15 04:59:37;;;;;;;4.67;4.27;;;;;;;18.66;72.68;94709.38;5052928;28;20437;-80
2022/09/15 05:02:04;;;;;;;4.77;4.37;;;;;;;18.75;72.24;94713.56;5053515;28;20449;-80
2022/09/15 05:07:54;;;;;;;8.83;4.97;;;;;;;19.26;70.60;94716.25;5052977;28;20942;-79
2022/09/15 05:10:21;;;;;;;11.33;5.00;;;;;;;19.49;68.98;94707.09;5050968;28;20491;-80
2022/09/15 05:12:48;;;;;;;9.80;4.67;;;;;;;19.78;68.32;94714.19;5052750;28;20485;-80
2022/09/15 05:15:14;;;;;;;7.23;4.57;;;;;;;20.02;67.22;94693.50;5052443;28;20438;-80
2022/09/15 05:17:41;;;;;;;4.87;4.47;;;;;;;20.45;66.19;94714.72;5052688;28;20446;-80
2022/09/15 05:20:08;;;;;;;7.03;4.73;;;;;;;20.85;64.67;94705.16;5052752;28;20438;-80
2022/09/15 05:47:58;;;;;;;5.53;2.90;;;;;;;23.54;55.21;94677.78;5026141;28;20445;-79
2022/09/15 05:50:25;;;;;;;7.47;4.00;;;;;;;23.75;54.58;94674.81;5055551;28;20450;-80
2022/09/15 05:52:52;;;;;;;5.50;3.77;;;;;;;24.09;54.96;94676.22;5055476;28;20606;-81
2022/09/15 05:55:19;;;;;;;5.00;3.93;;;;;;;24.45;55.04;94677.38;5059983;28;21080;-82
2022/09/15 05:57:46;;;;;;;9.80;4.20;;;;;;;24.62;51.62;94665.84;5045485;28;21217;-77
2022/09/15 06:00:13;;;;;;;9.77;3.83;;;;;;;24.71;52.25;94671.75;5055425;28;20448;-78
2022/09/15 06:02:40;;;;;;;6.17;4.20;;;;;;;24.83;51.46;94661.06;5055209;28;20880;-79
2022/09/15 06:05:09;;;;;;;11.20;4.10;;;;;;;24.94;50.83;94660.34;5055679;28;20454;-78
2022/09/15 06:07:36;;;;;;;7.10;3.97;;;;;;;25.12;51.01;94654.16;5068830;28;20499;-79
2022/09/15 06:10:03;;;;;;;7.70;4.13;;;;;;;25.18;50.41;94659.47;5055419;28;20964;-78
2022/09/15 06:12:30;;;;;;;7.23;4.60;;;;;;;25.35;50.95;94653.47;5069408;28;20441;-77
2022/09/15 06:14:57;;;;;;;9.17;4.03;;;;;;;25.53;50.87;94656.94;5055761;28;21259;-78
2022/09/15 06:17:23;;;;;;;11.10;4.67;;;;;;;25.48;50.59;94656.00;5055677;28;20449;-78
2022/09/15 06:19:50;;;;;;;8.50;5.70;;;;;;;25.25;51.75;94665.56;5054827;28;20446;-79
2022/09/15 06:22:18;;;;;;;6.97;4.60;;;;;;;25.23;53.26;94673.03;5055490;28;20495;-79
2022/09/15 06:24:45;;;;;;;13.40;5.30;;;;;;;25.09;52.84;94676.91;5054650;28;20441;-78
2022/09/15 06:27:12;;;;;;;10.40;5.40;;;;;;;25.11;54.22;94674.81;5055228;28;20441;-78
2022/09/15 06:29:39;;;;;;;14.27;6.27;;;;;;;25.04;53.02;94679.47;5055399;28;20933;-80
2022/09/15 06:32:06;;;;;;;9.70;5.97;;;;;;;24.99;52.45;94665.91;5054136;28;20830;-79
2022/09/15 06:34:33;;;;;;;6.07;5.57;;;;;;;25.01;52.84;94655.75;5054653;28;20492;-79
2022/09/15 06:37:00;;;;;;;11.60;4.80;;;;;;;25.06;50.98;94655.06;5055160;28;20450;-79
2022/09/15 06:39:28;;;;;;;6.83;4.77;;;;;;;25.17;52.27;94657.03;5054662;28;20442;-79
2022/09/15 06:41:55;;;;;;;20.60;5.63;;;;;;;25.31;53.71;94661.16;5055065;28;20816;-79
2022/09/15 06:44:22;;;;;;;8.50;5.40;;;;;;;25.46;53.13;94671.53;5020244;28;20445;-80
2022/09/15 06:46:49;;;;;;;13.57;5.33;;;;;;;25.54;51.31;94655.06;5055077;28;20442;-80
2022/09/15 06:49:16;;;;;;;13.30;5.33;;;;;;;25.49;50.50;94649.56;5036383;28;20535;-79
2022/09/15 06:51:43;;;;;;;5.43;3.90;;;;;;;25.57;50.96;94646.53;5054855;28;20512;-80
2022/09/15 06:54:10;;;;;;;8.70;4.70;;;;;;;25.71;49.98;94666.00;5036555;28;20474;-80
2022/09/15 06:56:38;;;;;;;13.40;4.27;;;;;;;25.81;50.17;94664.44;5055236;28;20445;-78
2022/09/15 06:59:05;;;;;;;9.10;4.37;;;;;;;26.01;47.17;94660.59;5054940;28;20450;-79
2022/09/15 07:01:32;;;;;;;13.00;4.30;;;;;;;26.06;44.53;94664.25;5054322;28;20940;-79
2022/09/15 07:04:01;;;;;;;12.03;5.30;;;;;;;25.97;44.81;94672.88;5054631;28;20518;-80
2022/09/15 07:06:29;;;;;;;7.20;4.60;;;;;;;25.90;44.36;94673.78;5053731;28;20874;-78
2022/09/15 07:08:57;;;;;;;11.57;5.50;;;;;;;26.01;45.11;94690.16;5054135;28;20449;-78
2022/09/15 07:11:24;;;;;;;14.30;6.10;;;;;;;25.85;46.34;94681.72;5053791;28;20508;-79
2022/09/15 07:13:53;;;;;;;8.80;5.37;;;;;;;25.78;46.07;94677.50;5053952;28;20485;-80
2022/09/15 07:16:21;;;;;;;12.00;5.73;;;;;;;25.94;45.12;94701.03;5054328;28;20893;-80
2022/09/15 07:18:49;;;;;;;8.73;6.20;;;;;;;26.17;45.46;94700.28;5019907;28;20480;-80
2022/09/15 07:21:18;;;;;;;11.37;5.70;;;;;;;26.30;45.15;94705.44;5018961;28;21232;-79
2022/09/15 07:24:09;;;;;;;10.47;5.33;;;;;;;26.54;44.01;94714.38;5054119;28;20492;-78
2022/09/15 07:26:36;;;;;;;13.47;5.40;;;;;;;26.41;43.38;94704.69;5054873;28;20450;-79
2022/09/15 07:29:06;;;;;;;14.97;5.93;;;;;;;26.49;42.75;94720.47;5052436;28;20468;-79
2022/09/15 07:31:35;;;;;;;16.60;5.43;;;;;;;26.50;42.95;94713.22;5053130;28;20875;-79
2022/09/15 07:34:02;;;;;;;11.30;4.73;;;;;;;26.65;42.92;94724.38;5052459;28;20485;-79
2022/09/15 07:36:29;;;;;;;11.90;6.40;;;;;;;26.76;43.80;94731.59;5052904;28;20445;-80
2022/09/15 07:38:56;;;;;;;8.80;4.97;;;;;;;26.83;42.83;94739.56;5053396;28;20452;-79
2022/09/15 07:41:25;;;;;;;6.03;4.80;;;;;;;26.80;43.17;94748.13;5054121;28;20437;-78
2022/09/15 07:43:53;;;;;;;11.00;5.60;;;;;;;26.76;43.22;94742.38;5053976;28;20442;-79
2022/09/15 07:46:23;;;;;;;12.27;4.83;;;;;;;26.64;42.95;94738.88;5053959;28;20940;-79
2022/09/15 07:48:52;;;;;;;9.53;4.80;;;;;;;26.74;42.75;94747.19;5053716;28;20492;-78
2022/09/15 07:51:19;;;;;;;11.00;4.80;;;;;;;26.79;42.49;94733.00;5053869;28;20541;-79
2022/09/15 07:53:48;;;;;;;13.17;4.70;;;;;;;26.49;42.28;94725.03;5052985;28;20481;-79
2022/09/15 07:58:56;;;;;;;10.03;4.23;;;;;;;26.19;41.92;94722.38;5011703;28;20450;-78
2022/09/15 08:01:24;;;;;;;8.93;5.20;;;;;;;26.03;42.76;94704.25;5011552;28;20456;-79
2022/09/15 08:03:52;;;;;;;11.13;5.50;;;;;;;26.42;42.31;94708.19;4992100;28;20448;-80
2022/09/15 08:06:22;;;;;;;6.67;4.57;;;;;;;26.59;42.49;94711.00;4992589;28;20523;-79
2022/09/15 08:08:49;;;;;;;11.83;4.00;;;;;;;26.79;42.44;94704.22;4991872;28;20860;-79
2022/09/15 08:11:18;;;;;;;8.17;4.67;;;;;;;27.11;41.68;94712.75;5009297;28;20581;-79
2022/09/15 08:13:45;;;;;;;9.17;4.60;;;;;;;27.41;41.10;94712.56;5008876;28;20479;-79
2022/09/15 08:16:14;;;;;;;7.87;4.97;;;;;;;27.44;39.33;94714.78;5010455;28;20435;-80
2022/09/15 08:18:43;;;;;;;15.10;5.17;;;;;;;27.37;40.68;94710.59;5010362;28;20459;-79
2022/09/15 08:21:13;;;;;;;5.87;4.77;;;;;;;27.20;40.53;94705.16;5010369;28;20550;-79
2022/09/15 08:23:40;;;;;;;5.77;4.60;;;;;;;26.99;40.83;94711.97;5010171;28;20455;-80
2022/09/15 08:26:08;;;;;;;6.63;4.30;;;;;;;27.10;40.71;94703.03;5010183;28;20444;-79
2022/09/15 08:28:35;;;;;;;4.57;4.17;;;;;;;27.40;41.60;94704.72;5010431;28;20451;-79
2022/09/15 08:31:03;;;;;;;5.77;5.17;;;;;;;27.61;40.99;94697.88;5052431;28;20479;-79
2022/09/15 08:33:30;;;;;;;9.97;4.77;;;;;;;27.55;40.74;94680.78;5052412;28;20481;-80
2022/09/15 08:36:06;;;;;;;11.73;5.30;;;;;;;27.66;40.51;94679.13;5051996;28;20464;-79
2022/09/15 08:38:33;;;;;;;8.87;5.00;;;;;;;27.75;40.56;94680.38;5052051;28;20442;-80
2022/09/15 08:41:03;;;;;;;13.73;5.30;;;;;;;27.43;39.32;94683.50;5052379;28;20473;-79
2022/09/15 08:43:38;;;;;;;11.60;5.13;;;;;;;27.68;40.23;94674.31;5052177;28;20457;-79
2022/09/15 08:46:09;;;;;;;4.50;4.10;;;;;;;27.08;40.55;94678.22;5052116;28;20445;-80
2022/09/15 08:48:41;;;;;;;11.17;4.33;;;;;;;27.13;41.18;94672.94;5052099;28;20488;-79
2022/09/15 08:51:15;;;;;;;6.90;4.33;;;;;;;27.30;41.84;94672.19;5053051;28;20651;-79
2022/09/15 08:53:46;;;;;;;6.80;4.43;;;;;;;27.51;41.89;94666.16;5052681;28;20488;-79
2022/09/15 08:56:17;;;;;;;13.60;6.50;;;;;;;27.62;41.15;94659.91;5052950;28;20437;-79
2022/09/15 08:58:45;;;;;;;8.00;4.50;;;;;;;27.65;39.09;94664.81;5052837;28;20460;-78
2022/09/15 09:01:28;;;;;;;10.20;5.27;;;;;;;27.64;40.20;94656.97;5059235;28;20452;-79
2022/09/15 09:04:12;;;;;;;10.60;5.00;;;;;;;27.72;41.01;94672.75;5061952;28;20457;-79
2022/09/15 09:06:48;;;;;;;10.00;5.40;;;;;;;27.82;40.89;94653.28;5023868;28;20817;-79
2022/09/15 09:09:29;;;;;;;16.93;6.20;;;;;;;27.92;40.85;94648.88;5056276;28;20437;-78
2022/09/15 09:12:15;;;;;;;16.77;4.97;;;;;;;28.10;41.21;94639.72;5056354;28;20929;-78
2022/09/15 09:14:56;;;;;;;9.33;5.37;;;;;;;28.05;40.57;94645.88;5055846;28;20492;-79
2022/09/15 09:17:36;;;;;;;7.47;4.80;;;;;;;28.06;40.92;94644.00;5055866;28;20452;-79
2022/09/15 09:20:24;;;;;;;9.10;5.30;;;;;;;27.85;41.91;94645.50;5055734;28;20495;-80
2022/09/15 09:22:54;;;;;;;14.50;4.97;;;;;;;27.79;41.22;94642.97;5013318;28;20506;-79
2022/09/15 09:25:22;;;;;;;10.57;4.90;;;;;;;27.91;40.97;94633.75;5013852;28;20811;-79
2022/09/15 09:27:49;;;;;;;8.37;3.90;;;;;;;27.89;41.28;94632.34;5012937;28;20478;-79
2022/09/15 09:30:19;;;;;;;8.80;4.47;;;;;;;27.95;41.92;94626.78;5005398;28;20439;-77
2022/09/15 09:32:51;;;;;;;5.60;4.37;;;;;;;28.00;41.10;94629.56;5007781;28;20462;-80
2022/09/15 09:35:24;;;;;;;8.60;4.50;;;;;;;27.99;42.45;94621.72;4997268;28;21043;-78
2022/09/15 09:37:53;;;;;;;9.33;4.43;;;;;;;27.95;42.09;94612.50;5007521;28;20469;-82
2022/09/15 09:40:21;;;;;;;7.67;4.47;;;;;;;27.89;41.34;94608.91;5015356;28;20536;-83
2022/09/15 09:42:48;;;;;;;5.30;3.40;;;;;;;27.96;41.27;94611.41;5011588;28;20447;-85
2022/09/15 09:45:18;;;;;;;13.30;3.90;;;;;;;27.86;40.15;94612.09;5014478;28;20513;-79
2022/09/15 09:47:46;;;;;;;5.97;3.87;;;;;;;28.11;41.91;94611.69;5014186;28;20444;-80
2022/09/15 09:50:39;;;;;;;5.17;3.90;;;;;;;27.91;40.00;94598.69;5014282;28;20514;-81
2022/09/15 09:53:25;;;;;;;5.53;4.47;;;;;;;27.94;40.38;94602.75;4995566;28;20532;-82
2022/09/15 09:55:53;;;;;;;7.80;5.57;;;;;;;28.07;40.17;94602.44;4981869;28;20990;-82
2022/09/15 09:58:22;;;;;;;4.00;3.60;;;;;;;28.22;40.25;94605.38;5013002;28;20878;-81
2022/09/15 10:00:52;;;;;;;6.93;4.00;;;;;;;28.47;41.64;94601.47;5048802;28;20437;-84
2022/09/15 10:03:21;;;;;;;9.73;4.20;;;;;;;28.50;39.82;94590.97;5056359;28;20460;-81
2022/09/15 10:06:02;;;;;;;11.43;4.77;;;;;;;28.56;39.33;94597.25;5055768;28;21098;-81
2022/09/15 10:08:31;;;;;;;6.83;4.00;;;;;;;28.70;40.74;94590.44;5055766;28;20454;-81
2022/09/15 10:11:03;;;;;;;6.67;3.90;;;;;;;28.79;39.71;94591.66;5056082;28;20441;-86
2022/09/15 10:13:32;;;;;;;4.47;3.63;;;;;;;28.87;38.73;94591.22;5056622;28;20449;-85
2022/09/15 10:16:06;;;;;;;7.30;4.23;;;;;;;28.67;38.98;94593.66;5055821;28;20430;-84
2022/09/15 10:18:35;;;;;;;6.80;3.93;;;;;;;28.51;39.11;94583.69;5056409;28;20774;-84
2022/09/15 10:21:04;;;;;;;7.93;3.87;;;;;;;28.56;38.79;94589.97;5055958;28;20530;-84
2022/09/15 10:23:34;;;;;;;13.60;4.07;;;;;;;28.67;38.50;94582.84;5055629;28;20437;-85
2022/09/15 10:26:19;;;;;;;7.87;3.40;;;;;;;28.88;39.78;94598.25;5056919;28;20514;-86
2022/09/15 10:29:10;;;;;;;4.80;3.63;;;;;;;29.01;39.97;94597.09;5055708;28;20454;-93
2022/09/15 10:31:37;;;;;;;11.23;3.43;;;;;;;29.08;38.41;94596.91;5057255;28;20434;-93
2022/09/15 10:34:24;;;;;;;8.37;4.70;;;;;;;29.01;38.33;94577.38;5057429;28;20476;-82
2022/09/15 10:36:53;;;;;;;8.03;4.00;;;;;;;29.17;38.07;94585.38;5055084;28;20438;-92
2022/09/15 10:39:31;;;;;;;4.73;3.20;;;;;;;29.32;38.14;94576.63;5054837;28;20446;-86
2022/09/15 10:42:09;;;;;;;10.10;3.23;;;;;;;29.39;37.35;94577.25;5054676;28;20484;-85
2022/09/15 10:44:43;;;;;;;5.70;4.17;;;;;;;29.44;37.86;94574.63;5055271;28;20816;-84
2022/09/15 10:47:22;;;;;;;6.13;3.40;;;;;;;29.47;35.66;94565.19;5056065;28;20432;-85
2022/09/15 10:50:04;;;;;;;8.50;3.87;;;;;;;29.47;36.33;94566.00;5054607;28;20481;-84
2022/09/15 10:52:42;;;;;;;6.53;3.40;;;;;;;29.56;36.38;94561.78;5055519;28;20503;-84
2022/09/15 10:55:32;;;;;;;7.83;4.40;;;;;;;29.56;35.71;94540.16;5036694;28;20837;-82
2022/09/15 10:58:22;;;;;;;6.23;3.70;;;;;;;29.68;36.49;94547.25;5054904;28;20906;-87
2022/09/15 11:04:39;;;;;;;8.03;3.93;;;;;;;29.72;35.75;94548.38;5054754;28;20425;-83
2022/09/15 11:07:14;;;;;;;6.03;3.70;;;;;;;29.71;37.13;94539.44;5012696;28;20444;-81
2022/09/15 11:09:45;;;;;;;9.50;4.20;;;;;;;29.70;35.76;94540.53;5013120;28;20436;-82
2022/09/15 11:12:26;;;;;;;12.67;4.50;;;;;;;29.75;35.82;94542.44;5012575;28;21038;-80
2022/09/15 11:15:06;;;;;;;8.20;4.60;;;;;;;29.69;35.73;94538.91;5012344;28;20483;-80
2022/09/15 11:17:46;;;;;;;6.40;3.53;;;;;;;29.67;35.82;94529.41;5002560;28;20815;-79
2022/09/15 11:20:31;;;;;;;6.80;4.10;;;;;;;29.64;35.96;94529.94;5012680;28;20440;-79
2022/09/15 11:23:02;;;;;;;14.30;4.30;;;;;;;29.56;36.99;94523.91;5003605;28;20791;-80
2022/09/15 11:25:34;;;;;;;9.50;4.90;;;;;;;29.54;36.88;94523.38;5012575;28;20471;-81
2022/09/15 11:28:08;;;;;;;12.57;4.00;;;;;;;29.54;36.24;94520.66;5011720;28;20497;-81
2022/09/15 11:30:41;;;;;;;13.03;4.37;;;;;;;29.55;36.22;94524.19;5012411;28;20443;-80
2022/09/15 11:33:16;;;;;;;9.20;3.90;;;;;;;29.47;37.00;94511.91;5012722;28;20547;-81
2022/09/15 11:35:47;;;;;;;9.40;3.87;;;;;;;29.46;38.11;94515.69;4989086;28;20482;-81
2022/09/15 11:38:31;;;;;;;7.60;4.30;;;;;;;29.55;37.20;94516.06;5023221;28;20458;-81
2022/09/15 11:41:10;;;;;;;5.17;3.30;;;;;;;29.57;36.27;94509.31;5012049;28;20447;-81
2022/09/15 11:43:45;;;;;;;14.83;4.23;;;;;;;29.54;37.16;94515.25;5022479;28;20443;-82
2022/09/15 11:46:18;;;;;;;6.00;3.70;;;;;;;29.57;37.55;94506.63;5043900;28;20445;-88
2022/09/15 11:48:51;;;;;;;5.83;4.03;;;;;;;29.65;37.07;94516.16;5042180;28;20469;-83
2022/09/15 11:51:24;;;;;;;7.60;3.37;;;;;;;29.79;36.08;94505.72;5053083;28;20449;-84
2022/09/15 11:53:57;;;;;;;8.00;4.53;;;;;;;29.99;36.20;94503.16;5052943;28;20512;-84
2022/09/15 11:56:29;;;;;;;14.37;4.10;;;;;;;30.12;34.38;94497.31;5053267;28;20964;-85
2022/09/15 11:59:14;;;;;;;8.40;3.63;;;;;;;30.26;35.35;94494.16;5051992;28;20805;-84
2022/09/15 12:01:49;;;;;;;8.60;3.43;;;;;;;30.41;35.99;94492.34;5053933;28;20433;-84
2022/09/15 12:07:46;;;;;;;9.17;4.10;;;;;;;30.63;34.79;94480.53;5052863;28;20424;-81
2022/09/15 12:10:21;;;;;;;15.23;4.70;;;;;;;30.73;33.65;94478.72;5053625;28;20772;-81
2022/09/15 12:12:50;;;;;;;7.47;4.53;;;;;;;30.80;33.57;94465.72;5019013;28;20769;-82
2022/09/15 12:15:25;;;;;;;12.73;4.23;;;;;;;30.78;33.31;94462.47;5053286;28;20473;-82
2022/09/15 12:17:58;;;;;;;12.63;4.90;;;;;;;30.72;33.04;94458.13;5054247;28;20457;-82
2022/09/15 12:20:30;;;;;;;11.40;4.60;;;;;;;30.55;34.66;94457.47;5053865;28;20469;-85
2022/09/15 12:23:02;;;;;;;7.63;3.63;;;;;;;30.53;34.75;94441.47;5053560;28;20434;-85
2022/09/15 12:25:36;;;;;;;11.93;4.10;;;;;;;30.58;33.87;94446.09;5018814;28;20433;-86
2022/09/15 12:28:40;;;;;;;7.17;4.17;;;;;;;30.50;34.69;94443.91;5053759;28;20479;-86